createdAt,value
2019-04-05T00:01:32.022Z,15.27
2019-04-05T00:03:58.848Z,14.35
2019-04-05T00:06:25.629Z,15.60
2019-04-05T00:08:52.432Z,16.50
2019-04-05T00:11:19.572Z,15.73
2019-04-05T00:13:46.376Z,16.00
2019-04-05T00:16:13.228Z,16.17
2019-04-05T00:18:40.011Z,16.02
2019-04-05T00:21:06.789Z,14.90
2019-04-05T00:23:33.684Z,15.65
2019-04-05T00:26:00.517Z,15.75
2019-04-05T00:28:27.335Z,15.03
2019-04-05T00:30:54.181Z,13.65
2019-04-05T00:33:21.052Z,14.90
2019-04-05T00:35:47.832Z,13.15
2019-04-05T00:38:14.672Z,13.60
2019-04-05T00:40:41.504Z,13.62
2019-04-05T00:43:08.281Z,13.08
2019-04-05T00:45:35.111Z,12.75
2019-04-05T00:48:01.901Z,13.38
2019-04-05T00:50:28.728Z,13.55
2019-04-05T00:52:55.524Z,12.70
2019-04-05T00:55:22.475Z,13.22
2019-04-05T00:57:49.548Z,13.00
2019-04-05T01:00:16.798Z,12.35
2019-04-05T01:02:43.576Z,12.63
2019-04-05T01:05:12.219Z,12.95
2019-04-05T01:07:39.197Z,11.80
2019-04-05T01:10:06.487Z,12.10
2019-04-05T01:12:33.317Z,10.90
2019-04-05T01:15:00.536Z,11.57
2019-04-05T01:17:27.813Z,12.65
2019-04-05T01:19:58.196Z,11.38
2019-04-05T01:22:26.525Z,12.45
2019-04-05T01:24:53.307Z,12.40
2019-04-05T01:27:23.365Z,12.00
2019-04-05T01:29:50.742Z,11.22
2019-04-05T01:32:17.612Z,11.60
2019-04-05T01:34:44.444Z,11.50
2019-04-05T01:37:11.219Z,11.90
2019-04-05T01:39:38.052Z,12.18
2019-04-05T01:42:05.844Z,11.93
2019-04-05T01:44:33.064Z,12.20
2019-04-05T01:47:00.008Z,13.00
2019-04-05T01:49:26.844Z,13.48
2019-04-05T01:51:53.820Z,12.35
2019-04-05T01:54:20.652Z,13.00
2019-04-05T01:56:47.433Z,13.35
2019-04-05T01:59:14.270Z,13.08
2019-04-05T02:01:41.092Z,13.22
2019-04-05T02:04:07.934Z,14.40
2019-04-05T02:06:34.693Z,14.65
2019-04-05T02:09:01.565Z,14.10
2019-04-05T02:11:28.415Z,13.20
2019-04-05T02:13:55.244Z,12.58
2019-04-05T02:16:22.081Z,13.72
2019-04-05T02:18:49.260Z,14.65
2019-04-05T02:21:16.091Z,13.55
2019-04-05T02:23:42.883Z,13.55
2019-04-05T02:26:09.824Z,13.85
2019-04-05T02:28:36.616Z,14.75
2019-04-05T02:31:03.642Z,15.58
2019-04-05T02:33:30.522Z,13.47
2019-04-05T02:35:58.870Z,12.93
2019-04-05T02:38:25.663Z,13.80
2019-04-05T02:40:53.836Z,12.93
2019-04-05T02:43:21.987Z,13.40
2019-04-05T02:45:49.378Z,13.78
2019-04-05T02:48:17.550Z,14.95
2019-04-05T02:50:48.017Z,13.93
2019-04-05T02:53:17.300Z,14.10
2019-04-05T02:55:45.536Z,14.28
2019-04-05T02:58:13.007Z,14.70
2019-04-05T03:00:40.949Z,13.78
2019-04-05T03:03:07.781Z,13.38
2019-04-05T03:05:35.568Z,13.40
2019-04-05T03:08:03.300Z,13.95
2019-04-05T03:10:54.609Z,14.95
2019-04-05T03:13:23.248Z,14.78
2019-04-05T03:15:51.537Z,13.45
2019-04-05T03:18:18.968Z,14.30
2019-04-05T03:20:45.950Z,13.10
2019-04-05T03:23:13.733Z,13.03
2019-04-05T03:25:40.761Z,12.50
2019-04-05T03:28:07.940Z,14.70
2019-04-05T03:30:35.182Z,14.90
2019-04-05T03:33:02.189Z,14.75
2019-04-05T03:35:29.115Z,14.70
2019-04-05T03:37:56.293Z,15.58
2019-04-05T03:40:23.077Z,15.48
2019-04-05T03:42:50.106Z,17.07
2019-04-05T03:45:17.142Z,16.60
2019-04-05T03:47:44.114Z,17.37
2019-04-05T03:50:11.264Z,16.10
2019-04-05T03:52:38.245Z,14.53
2019-04-05T03:55:05.625Z,16.57
2019-04-05T03:57:32.467Z,18.80
2019-04-05T03:59:59.344Z,18.30
2019-04-05T04:02:26.172Z,17.60
2019-04-05T04:04:53.754Z,17.20
2019-04-05T04:07:20.701Z,18.70
2019-04-05T04:09:47.550Z,17.95
2019-04-05T04:12:14.434Z,17.48
2019-04-05T04:14:41.290Z,17.10
2019-04-05T04:17:12.950Z,16.73
2019-04-05T04:19:37.685Z,17.95
2019-04-05T04:22:20.296Z,17.75
2019-04-05T04:24:47.724Z,18.40
2019-04-05T04:27:15.013Z,16.90
2019-04-05T04:29:41.856Z,17.65
2019-04-05T04:32:08.655Z,17.62
2019-04-05T04:34:35.537Z,18.35
2019-04-05T04:37:03.621Z,18.57
2019-04-05T04:39:30.801Z,17.37
2019-04-05T04:41:57.643Z,18.80
2019-04-05T04:44:24.980Z,20.95
2019-04-05T04:46:52.368Z,18.98
2019-04-05T04:49:19.610Z,18.10
2019-04-05T04:51:46.640Z,17.07
2019-04-05T04:54:13.432Z,18.65
2019-04-05T04:56:40.368Z,21.00
2019-04-05T04:59:07.148Z,19.73
2019-04-05T05:01:34.084Z,19.77
2019-04-05T05:04:00.872Z,26.48
2019-04-05T05:06:28.205Z,25.30
2019-04-05T05:08:55.036Z,20.05
2019-04-05T05:11:21.921Z,19.00
2019-04-05T05:13:48.752Z,21.62
2019-04-05T05:16:15.884Z,19.87
2019-04-05T05:18:42.920Z,20.57
2019-04-05T05:21:09.919Z,19.00
2019-04-05T05:23:36.944Z,18.48
2019-04-05T05:26:03.838Z,20.82
2019-04-05T05:28:32.804Z,20.33
2019-04-05T05:30:59.304Z,21.73
2019-04-05T05:33:26.093Z,23.35
2019-04-05T05:35:53.026Z,22.73
2019-04-05T05:38:19.990Z,23.27
2019-04-05T05:40:53.534Z,22.07
2019-04-05T05:43:23.591Z,23.27
2019-04-05T05:45:49.269Z,20.70
2019-04-05T05:48:17.062Z,21.48
2019-04-05T05:50:44.326Z,23.12
2019-04-05T05:53:12.697Z,20.57
2019-04-05T05:55:39.761Z,26.50
2019-04-05T05:58:06.826Z,23.45
2019-04-05T06:00:33.821Z,24.07
2019-04-05T06:03:00.735Z,26.07
2019-04-05T06:05:27.712Z,26.37
2019-04-05T06:07:54.489Z,27.62
2019-04-05T06:10:21.347Z,27.05
2019-04-05T06:12:48.129Z,25.53
2019-04-05T06:15:14.914Z,24.67
2019-04-05T06:17:42.061Z,26.62
2019-04-05T06:20:09.350Z,22.07
2019-04-05T06:22:36.187Z,23.12
2019-04-05T06:25:05.170Z,22.90
2019-04-05T06:27:35.163Z,22.50
2019-04-05T06:30:00.757Z,23.40
2019-04-05T06:32:27.593Z,21.75
2019-04-05T06:34:54.817Z,19.30
2019-04-05T06:37:21.670Z,17.60
2019-04-05T06:39:48.503Z,20.80
2019-04-05T06:42:15.303Z,22.15
2019-04-05T06:44:42.588Z,19.10
2019-04-05T06:47:09.488Z,21.10
2019-04-05T06:49:36.316Z,18.80
2019-04-05T06:52:03.263Z,19.87
2019-04-05T06:54:30.050Z,20.30
2019-04-05T06:56:56.900Z,20.75
2019-04-05T06:59:23.697Z,20.40
2019-04-05T07:01:50.535Z,21.82
2019-04-05T07:04:17.324Z,19.42
2019-04-05T07:06:44.177Z,19.23
2019-04-05T07:09:11.005Z,21.87
2019-04-05T07:11:37.797Z,21.23
2019-04-05T07:14:04.591Z,23.65
2019-04-05T07:16:31.380Z,22.15
2019-04-05T07:18:58.240Z,25.10
2019-04-05T07:21:25.024Z,21.95
2019-04-05T07:23:52.084Z,23.50
2019-04-05T07:26:20.967Z,22.30
2019-04-05T07:28:47.623Z,22.07
2019-04-05T07:31:14.400Z,25.35
2019-04-05T07:33:41.333Z,22.77
2019-04-05T07:36:08.494Z,20.93
2019-04-05T07:38:35.695Z,24.40
2019-04-05T07:41:02.536Z,24.80
2019-04-05T07:43:29.343Z,21.65
2019-04-05T07:45:56.181Z,24.35
2019-04-05T07:48:22.962Z,19.97
2019-04-05T07:50:49.807Z,20.90
2019-04-05T07:53:16.591Z,21.87
2019-04-05T07:55:43.429Z,23.10
2019-04-05T07:58:10.216Z,20.13
2019-04-05T08:00:48.870Z,19.45
2019-04-05T08:03:16.364Z,18.67
2019-04-05T08:05:43.356Z,19.02
2019-04-05T08:08:19.633Z,18.98
2019-04-05T08:10:46.630Z,19.00
2019-04-05T08:13:14.595Z,20.00
2019-04-05T08:15:41.984Z,19.42
2019-04-05T08:18:08.840Z,20.72
2019-04-05T08:20:35.672Z,19.32
2019-04-05T08:23:02.510Z,17.70
2019-04-05T08:25:29.297Z,19.35
2019-04-05T08:27:56.132Z,19.27
2019-04-05T08:30:22.949Z,17.75
2019-04-05T08:32:49.821Z,18.57
2019-04-05T08:35:16.656Z,17.40
2019-04-05T08:37:43.452Z,17.62
2019-04-05T08:40:10.593Z,16.70
2019-04-05T08:42:37.372Z,17.80
2019-04-05T08:45:05.600Z,17.10
2019-04-05T08:47:32.396Z,15.58
2019-04-05T08:49:59.258Z,15.87
2019-04-05T08:52:27.128Z,17.98
2019-04-05T08:54:54.315Z,17.75
2019-04-05T08:57:21.153Z,18.62
2019-04-05T08:59:48.001Z,18.55
2019-04-05T09:02:14.852Z,20.48
2019-04-05T09:04:41.996Z,20.70
2019-04-05T09:07:08.794Z,19.12
2019-04-05T09:09:35.835Z,17.50
2019-04-05T09:12:11.177Z,18.05
2019-04-05T09:14:38.264Z,20.32
2019-04-05T09:17:05.097Z,18.80
2019-04-05T09:19:31.881Z,17.15
2019-04-05T09:21:58.842Z,19.25
2019-04-05T09:24:25.633Z,16.52
2019-04-05T09:26:54.270Z,18.57
2019-04-05T09:29:21.084Z,17.40
2019-04-05T09:31:47.956Z,16.37
2019-04-05T09:34:15.222Z,17.98
2019-04-05T09:36:41.997Z,16.95
2019-04-05T09:39:15.270Z,17.90
2019-04-05T09:41:39.328Z,18.37
2019-04-05T09:44:06.178Z,18.03
2019-04-05T09:46:45.648Z,16.10
2019-04-05T09:49:01.604Z,16.40
2019-04-05T09:51:28.448Z,20.08
2019-04-05T09:53:55.339Z,17.98
2019-04-05T09:56:22.199Z,17.65
2019-04-05T09:58:48.982Z,16.90
2019-04-05T10:01:15.818Z,16.30
2019-04-05T10:03:42.609Z,15.10
2019-04-05T10:06:09.421Z,19.45
2019-04-05T10:08:36.232Z,17.40
2019-04-05T10:11:03.018Z,19.50
2019-04-05T10:13:29.865Z,16.25
2019-04-05T10:15:56.642Z,17.07
2019-04-05T10:18:23.465Z,16.07
2019-04-05T10:20:50.265Z,17.25
2019-04-05T10:23:17.149Z,16.05
2019-04-05T10:25:44.269Z,14.70
2019-04-05T10:28:11.272Z,17.35
2019-04-05T10:30:38.108Z,15.68
2019-04-05T10:33:04.958Z,17.40
2019-04-05T10:35:31.811Z,15.90
2019-04-05T10:37:58.627Z,16.20
2019-04-05T10:40:25.445Z,17.80
2019-04-05T10:42:52.284Z,15.45
2019-04-05T10:45:19.076Z,14.28
2019-04-05T10:47:45.934Z,18.17
2019-04-05T10:50:13.701Z,17.25
2019-04-05T10:52:40.481Z,15.70
2019-04-05T10:55:08.052Z,15.70
2019-04-05T10:57:34.916Z,15.30
2019-04-05T11:00:01.873Z,22.73
2019-04-05T11:02:28.713Z,16.00
2019-04-05T11:04:55.502Z,17.07
2019-04-05T11:07:22.404Z,15.90
2019-04-05T11:09:49.193Z,28.17
2019-04-05T11:12:16.035Z,15.40
2019-04-05T11:14:42.884Z,16.48
2019-04-05T11:17:09.740Z,17.87
2019-04-05T11:19:36.520Z,16.07
2019-04-05T11:22:03.567Z,15.63
2019-04-05T11:24:30.401Z,15.40
2019-04-05T11:26:57.250Z,14.75
2019-04-05T11:29:24.101Z,18.00
2019-04-05T11:31:56.900Z,15.13
2019-04-05T11:34:19.477Z,15.03
2019-04-05T11:36:46.308Z,15.20
2019-04-05T11:39:13.318Z,16.30
2019-04-05T11:41:41.809Z,15.70
2019-04-05T11:44:08.688Z,15.80
2019-04-05T11:46:37.465Z,18.10
2019-04-05T11:49:04.573Z,15.30
2019-04-05T11:51:31.503Z,16.13
2019-04-05T11:53:58.292Z,16.10
2019-04-05T11:56:25.129Z,15.20
2019-04-05T11:58:51.913Z,14.78
2019-04-05T12:01:23.841Z,16.07
2019-04-05T12:03:50.620Z,18.25
2019-04-05T12:06:17.450Z,18.10
2019-04-05T12:08:44.239Z,14.90
2019-04-05T12:11:11.078Z,16.07
2019-04-05T12:13:37.860Z,16.67
2019-04-05T12:16:06.144Z,15.72
2019-04-05T12:18:34.786Z,17.45
2019-04-05T12:21:05.031Z,18.37
2019-04-05T12:23:33.365Z,17.02
2019-04-05T12:25:59.314Z,16.62
2019-04-05T12:28:26.164Z,15.90
2019-04-05T12:30:53.396Z,19.50
2019-04-05T12:33:20.454Z,17.07
2019-04-05T12:35:47.412Z,17.20
2019-04-05T12:38:27.974Z,16.85
2019-04-05T12:40:44.692Z,15.07
2019-04-05T12:43:13.613Z,17.30
2019-04-05T12:45:40.113Z,17.02
2019-04-05T12:48:06.949Z,18.32
2019-04-05T12:50:33.745Z,16.57
2019-04-05T12:53:00.744Z,19.45
2019-04-05T12:55:27.540Z,16.15
2019-04-05T12:57:56.185Z,15.80
2019-04-05T13:00:25.717Z,17.62
2019-04-05T13:02:51.702Z,19.55
2019-04-05T13:05:20.662Z,18.60
2019-04-05T13:07:47.169Z,17.20
2019-04-05T13:10:13.993Z,16.40
2019-04-05T13:12:40.768Z,14.70
2019-04-05T13:15:13.728Z,17.80
2019-04-05T13:17:36.396Z,15.90
2019-04-05T13:20:07.880Z,15.30
2019-04-05T13:22:34.712Z,15.35
2019-04-05T13:25:01.558Z,17.00
2019-04-05T13:27:28.360Z,17.10
2019-04-05T13:29:55.201Z,17.27
2019-04-05T13:32:22.528Z,17.32
2019-04-05T13:34:49.373Z,17.70
2019-04-05T13:37:20.606Z,17.50
2019-04-05T13:39:44.840Z,18.32
2019-04-05T13:42:11.686Z,17.52
2019-04-05T13:44:38.468Z,16.85
2019-04-05T13:47:08.087Z,17.42
2019-04-05T13:49:34.737Z,23.95
2019-04-05T13:52:01.524Z,17.92
2019-04-05T13:54:28.365Z,30.82
2019-04-05T13:56:55.150Z,16.10
2019-04-05T13:59:22.049Z,18.00
2019-04-05T14:01:51.471Z,17.35
2019-04-05T14:04:20.650Z,16.95
2019-04-05T14:06:46.168Z,18.40
2019-04-05T14:09:15.522Z,19.27
2019-04-05T14:11:41.629Z,19.10
2019-04-05T14:14:11.821Z,19.48
2019-04-05T14:16:38.389Z,20.60
2019-04-05T14:19:05.377Z,20.57
2019-04-05T14:21:40.215Z,17.80
2019-04-05T14:24:00.805Z,18.90
2019-04-05T14:26:29.341Z,17.48
2019-04-05T14:28:56.375Z,20.70
2019-04-05T14:31:23.157Z,16.30
2019-04-05T14:33:49.944Z,16.73
2019-04-05T14:36:16.780Z,17.85
2019-04-05T14:38:43.570Z,18.00
2019-04-05T14:41:10.404Z,17.82
2019-04-05T14:43:37.925Z,20.27
2019-04-05T14:46:04.928Z,18.50
2019-04-05T14:48:31.984Z,16.82
2019-04-05T14:50:58.911Z,17.45
2019-04-05T14:53:25.755Z,16.17
2019-04-05T14:55:52.629Z,16.07
2019-04-05T14:58:19.532Z,17.25
2019-04-05T15:00:48.270Z,18.05
2019-04-05T15:03:15.128Z,19.07
2019-04-05T15:05:42.067Z,18.90
2019-04-05T15:08:08.857Z,17.77
2019-04-05T15:10:35.709Z,17.80
2019-04-05T15:13:02.488Z,16.82
2019-04-05T15:15:29.431Z,18.35
2019-04-05T15:17:56.340Z,16.17
2019-04-05T15:20:23.172Z,19.20
2019-04-05T15:22:50.021Z,17.95
2019-04-05T15:25:18.779Z,19.87
2019-04-05T15:27:45.433Z,18.80
2019-04-05T15:30:15.074Z,19.48
2019-04-05T15:32:41.693Z,19.65
2019-04-05T15:35:08.544Z,22.10
2019-04-05T15:37:37.506Z,24.75
2019-04-05T15:40:06.101Z,21.95
2019-04-05T15:42:32.963Z,21.33
2019-04-05T15:44:59.744Z,20.77
2019-04-05T15:47:26.612Z,21.55
2019-04-05T15:49:53.444Z,23.37
2019-04-05T15:52:20.273Z,21.07
2019-04-05T15:54:47.140Z,23.27
2019-04-05T15:57:13.928Z,21.90
2019-04-05T15:59:40.761Z,24.00
2019-04-05T16:02:07.544Z,22.25
2019-04-05T16:04:34.421Z,23.70
2019-04-05T16:07:01.205Z,24.25
2019-04-05T16:09:28.054Z,23.52
2019-04-05T16:11:55.241Z,23.40
2019-04-05T16:14:22.111Z,25.62
2019-04-05T16:16:48.921Z,23.73
2019-04-05T16:19:15.808Z,21.77
2019-04-05T16:21:42.592Z,22.95
2019-04-05T16:24:09.449Z,23.77
2019-04-05T16:26:36.294Z,23.90
2019-04-05T16:29:03.290Z,22.50
2019-04-05T16:31:30.160Z,25.90
2019-04-05T16:33:56.949Z,23.20
2019-04-05T16:36:23.863Z,25.00
2019-04-05T16:38:50.910Z,23.77
2019-04-05T16:41:17.956Z,25.48
2019-04-05T16:43:44.845Z,22.93
2019-04-05T16:46:11.776Z,24.23
2019-04-05T16:48:38.689Z,23.55
2019-04-05T16:51:05.632Z,22.90
2019-04-05T16:53:32.679Z,24.50
2019-04-05T16:55:59.725Z,23.70
2019-04-05T16:58:26.668Z,24.55
2019-04-05T17:00:53.612Z,26.00
2019-04-05T17:03:20.557Z,24.27
2019-04-05T17:05:47.502Z,23.35
2019-04-05T17:08:14.548Z,24.18
2019-04-05T17:10:41.493Z,27.57
2019-04-05T17:13:08.372Z,31.90
2019-04-05T17:15:35.156Z,26.33
2019-04-05T17:18:02.111Z,28.25
2019-04-05T17:20:29.016Z,27.90
2019-04-05T17:22:58.287Z,35.88
2019-04-05T17:25:24.677Z,26.65
2019-04-05T17:27:51.473Z,28.97
2019-04-05T17:30:18.252Z,28.07
2019-04-05T17:32:45.090Z,29.00
2019-04-05T17:35:12.124Z,28.45
2019-04-05T17:37:38.910Z,34.90
2019-04-05T17:40:07.404Z,30.05
2019-04-05T17:42:34.936Z,37.73
2019-04-05T17:45:02.049Z,32.83
2019-04-05T17:47:28.823Z,30.57
2019-04-05T17:49:58.580Z,28.23
2019-04-05T17:52:25.429Z,33.20
2019-04-05T17:54:52.429Z,27.17
2019-04-05T17:57:19.764Z,27.40
2019-04-05T17:59:46.760Z,28.83
2019-04-05T18:02:13.768Z,32.55
2019-04-05T18:04:40.560Z,37.58
2019-04-05T18:07:27.137Z,28.67
2019-04-05T18:09:53.980Z,30.80
2019-04-05T18:12:20.809Z,30.60
2019-04-05T18:14:49.955Z,30.77
2019-04-05T18:17:16.244Z,40.25
2019-04-05T18:19:43.080Z,40.70
2019-04-05T18:22:09.917Z,31.35
2019-04-05T18:24:36.756Z,29.45
2019-04-05T18:27:03.597Z,30.95
2019-04-05T18:29:30.380Z,29.02
2019-04-05T18:31:57.292Z,29.77
2019-04-05T18:34:24.129Z,32.95
2019-04-05T18:36:50.917Z,31.33
2019-04-05T18:39:17.707Z,29.10
2019-04-05T18:41:44.585Z,29.03
2019-04-05T18:44:11.420Z,28.00
2019-04-05T18:46:38.326Z,31.25
2019-04-05T18:49:05.377Z,35.90
2019-04-05T18:51:32.253Z,32.90
2019-04-05T18:53:59.264Z,32.45
2019-04-05T18:56:26.206Z,34.13
2019-04-05T18:58:53.209Z,31.50
2019-04-05T19:01:20.331Z,35.20
2019-04-05T19:03:49.543Z,31.05
2019-04-05T19:06:17.772Z,36.93
2019-04-05T19:08:46.254Z,33.57
2019-04-05T19:11:14.016Z,30.67
2019-04-05T19:13:41.380Z,35.95
2019-04-05T19:16:08.635Z,33.97
2019-04-05T19:18:35.778Z,33.35
2019-04-05T19:21:03.226Z,29.63
2019-04-05T19:23:31.831Z,30.90
2019-04-05T19:25:58.753Z,29.23
2019-04-05T19:28:27.233Z,32.67
2019-04-05T19:48:34.872Z,31.17
2019-04-05T19:50:45.808Z,45.90
2019-04-05T19:53:12.686Z,48.42
2019-04-05T19:55:41.277Z,38.17
2019-04-05T19:58:08.279Z,42.25
2019-04-05T20:00:35.223Z,30.55
2019-04-05T20:03:02.270Z,31.27
2019-04-05T20:05:29.214Z,35.87
2019-04-05T20:07:56.261Z,37.05
2019-04-05T20:10:23.205Z,34.85
2019-04-05T20:12:50.252Z,39.92
2019-04-05T20:15:17.236Z,36.13
2019-04-05T20:17:44.247Z,29.67
2019-04-05T20:20:11.497Z,70.83
2019-04-05T20:22:38.439Z,51.40
2019-04-05T20:25:05.794Z,36.17
2019-04-05T20:27:32.634Z,37.03
2019-04-05T20:29:59.578Z,31.02
2019-04-05T20:32:26.533Z,35.33
2019-04-05T20:34:53.572Z,35.38
2019-04-05T20:37:20.514Z,37.25
2019-04-05T20:39:47.571Z,31.70
2019-04-05T20:42:14.629Z,32.98
2019-04-05T20:44:41.551Z,38.33
2019-04-05T20:47:08.597Z,38.13
2019-04-05T20:49:35.542Z,32.95
2019-04-05T20:52:02.588Z,30.48
2019-04-05T20:54:29.637Z,29.00
2019-04-05T20:56:56.579Z,34.48
2019-04-05T20:59:23.626Z,31.48
2019-04-05T21:01:50.676Z,29.67
2019-04-05T21:04:17.617Z,29.50
2019-04-05T21:06:44.561Z,34.20
2019-04-05T21:09:11.607Z,29.12
2019-04-05T21:11:38.552Z,32.25
2019-04-05T21:14:05.496Z,30.88
2019-04-05T21:16:32.440Z,30.72
2019-04-05T21:18:59.486Z,31.40
2019-04-05T21:21:26.535Z,32.00
2019-04-05T21:23:53.377Z,36.05
2019-04-05T21:26:20.422Z,29.40
2019-04-05T21:28:47.367Z,31.10
2019-04-05T21:31:14.413Z,35.52
2019-04-05T21:33:41.357Z,32.53
2019-04-05T21:36:08.301Z,32.10
2019-04-05T21:38:35.349Z,31.50
2019-04-05T21:41:02.396Z,31.10
2019-04-05T21:43:29.349Z,27.98
2019-04-05T21:45:56.283Z,36.40
2019-04-05T21:48:24.356Z,36.55
2019-04-05T21:50:51.232Z,29.48
2019-04-05T21:53:18.269Z,34.63
2019-04-05T21:55:45.186Z,31.85
2019-04-05T21:58:12.233Z,32.13
2019-04-05T22:00:41.265Z,32.98
2019-04-05T22:03:08.170Z,30.80
2019-04-05T22:05:35.114Z,32.17
2019-04-05T22:10:42.949Z,35.73
2019-04-05T22:13:09.873Z,34.60
2019-04-05T22:15:36.817Z,30.40
2019-04-05T22:18:03.864Z,31.50
2019-04-05T22:20:30.812Z,32.93
2019-04-05T22:22:57.753Z,33.90
2019-04-05T22:25:24.800Z,37.05
2019-04-05T22:27:51.846Z,27.80
2019-04-05T22:30:18.995Z,39.03
2019-04-05T22:32:45.938Z,38.00
2019-04-05T22:35:12.985Z,30.62
2019-04-05T22:37:39.930Z,31.52
2019-04-05T22:40:07.216Z,31.15
2019-04-05T22:42:34.236Z,31.40
2019-04-05T22:45:01.173Z,29.72
2019-04-05T22:47:28.221Z,33.70
2019-04-05T22:49:55.266Z,32.93
2019-04-05T22:52:22.517Z,34.73
2019-04-05T22:54:49.461Z,33.40
2019-04-05T22:57:16.508Z,30.25
2019-04-05T22:59:43.511Z,31.12
2019-04-05T23:02:10.601Z,33.63
2019-04-05T23:04:37.752Z,34.18
2019-04-05T23:07:04.899Z,31.93
2019-04-05T23:09:31.922Z,35.30
2019-04-05T23:11:58.992Z,31.33
2019-04-05T23:14:25.937Z,30.73
2019-04-05T23:16:52.983Z,28.42
2019-04-05T23:19:19.928Z,32.48
2019-04-05T23:21:46.974Z,28.83
2019-04-05T23:24:14.858Z,26.57
2019-04-05T23:26:41.784Z,30.20
2019-04-05T23:29:08.832Z,33.13
2019-04-05T23:31:35.879Z,34.95
2019-04-05T23:34:02.828Z,28.38
2019-04-05T23:36:29.767Z,28.02
2019-04-05T23:38:56.815Z,29.60
2019-04-05T23:41:23.759Z,29.37
2019-04-05T23:43:50.804Z,33.20
2019-04-05T23:46:17.748Z,29.35
2019-04-05T23:48:44.795Z,29.02
2019-04-05T23:51:11.776Z,29.85
2019-04-05T23:53:38.785Z,27.37
2019-04-05T23:56:06.260Z,24.82
2019-04-05T23:58:33.083Z,31.13
